createdAt,value
2023-02-19T00:01:39.047Z,71.31
2023-02-19T00:04:08.322Z,71.22
2023-02-19T00:06:35.795Z,70.58
2023-02-19T00:09:03.596Z,71.05
2023-02-19T00:11:33.567Z,70.81
2023-02-19T00:14:01.999Z,71.00
2023-02-19T00:16:34.953Z,72.13
2023-02-19T00:19:04.002Z,71.87
2023-02-19T00:21:31.190Z,70.85
2023-02-19T00:24:03.368Z,71.35
2023-02-19T00:26:30.600Z,71.27
2023-02-19T00:28:57.825Z,71.55
2023-02-19T00:31:32.836Z,71.40
2023-02-19T00:34:05.346Z,71.68
2023-02-19T00:36:37.670Z,70.76
2023-02-19T00:39:06.383Z,71.00
2023-02-19T00:41:33.442Z,71.69
2023-02-19T00:44:03.809Z,71.89
2023-02-19T00:46:39.442Z,71.37
2023-02-19T00:49:08.382Z,70.72
2023-02-19T00:51:38.008Z,71.14
2023-02-19T00:54:06.076Z,70.97
2023-02-19T00:56:33.325Z,71.07
2023-02-19T00:59:00.009Z,71.44
2023-02-19T01:01:26.633Z,71.12
2023-02-19T01:03:53.532Z,70.76
2023-02-19T01:06:21.345Z,71.02
2023-02-19T01:08:48.506Z,70.90
2023-02-19T01:11:15.798Z,71.25
2023-02-19T01:13:43.668Z,71.61
2023-02-19T01:16:14.843Z,70.87
2023-02-19T01:18:42.343Z,71.89
2023-02-19T01:21:13.398Z,72.67
2023-02-19T01:23:40.521Z,72.61
2023-02-19T01:26:09.475Z,71.70
2023-02-19T01:28:36.229Z,71.88
2023-02-19T01:31:04.565Z,71.51
2023-02-19T01:33:31.790Z,70.97
2023-02-19T01:35:58.794Z,70.72
2023-02-19T01:38:25.565Z,71.47
2023-02-19T01:40:56.968Z,71.89
2023-02-19T01:43:24.341Z,71.22
2023-02-19T01:45:51.375Z,71.85
2023-02-19T01:48:32.949Z,72.03
2023-02-19T01:51:10.949Z,72.61
2023-02-19T01:53:42.006Z,71.13
2023-02-19T01:56:09.786Z,71.21
2023-02-19T01:58:38.333Z,71.18
2023-02-19T02:01:07.607Z,71.99
2023-02-19T02:03:37.949Z,71.68
2023-02-19T02:06:12.560Z,71.27
2023-02-19T02:08:58.661Z,71.20
2023-02-19T02:11:25.653Z,71.25
2023-02-19T02:13:52.883Z,71.38
2023-02-19T02:16:29.355Z,72.07
2023-02-19T02:19:16.268Z,72.32
2023-02-19T02:21:45.908Z,71.20
2023-02-19T02:24:24.495Z,71.71
2023-02-19T02:27:01.239Z,71.06
2023-02-19T02:29:48.170Z,71.68
2023-02-19T02:33:16.933Z,71.79
2023-02-19T02:35:58.694Z,71.49
2023-02-19T02:38:29.731Z,70.94
2023-02-19T02:40:57.310Z,70.92
2023-02-19T02:43:25.452Z,70.87
2023-02-19T02:45:52.686Z,71.19
2023-02-19T02:48:42.099Z,71.22
2023-02-19T02:51:13.079Z,70.15
2023-02-19T02:54:20.371Z,71.09
2023-02-19T02:56:48.942Z,72.13
2023-02-19T02:59:19.618Z,72.18
2023-02-19T03:02:14.080Z,71.34
2023-02-19T03:05:08.663Z,71.35
2023-02-19T03:07:39.610Z,71.20
2023-02-19T03:10:10.594Z,71.83
2023-02-19T03:12:57.737Z,71.57
2023-02-19T03:15:47.990Z,71.61
2023-02-19T03:18:36.390Z,70.85
2023-02-19T03:21:05.417Z,71.43
2023-02-19T03:23:53.560Z,71.50
2023-02-19T03:26:21.658Z,71.76
2023-02-19T03:29:11.778Z,71.65
2023-02-19T03:31:44.188Z,70.40
2023-02-19T03:34:17.156Z,70.50
2023-02-19T03:36:49.655Z,71.78
2023-02-19T03:39:22.354Z,72.44
2023-02-19T03:42:00.000Z,72.22
2023-02-19T03:44:43.092Z,72.54
2023-02-19T03:47:27.742Z,72.34
2023-02-19T03:50:27.379Z,71.33
2023-02-19T03:53:00.503Z,71.90
2023-02-19T03:55:36.920Z,73.26
2023-02-19T03:58:06.261Z,72.79
2023-02-19T04:00:42.893Z,72.49
2023-02-19T04:03:27.696Z,73.39
2023-02-19T04:06:01.920Z,72.33
2023-02-19T04:08:32.073Z,71.98
2023-02-19T04:11:04.198Z,72.83
2023-02-19T04:13:40.870Z,71.16
2023-02-19T04:16:11.206Z,72.17
2023-02-19T04:18:41.072Z,73.19
2023-02-19T04:21:09.370Z,72.97
2023-02-19T04:23:44.190Z,72.52
2023-02-19T04:26:13.480Z,71.84
2023-02-19T04:28:40.377Z,71.29
2023-02-19T04:31:07.362Z,71.56
2023-02-19T04:33:34.274Z,72.04
2023-02-19T04:36:01.228Z,72.34
2023-02-19T04:38:27.876Z,71.84
2023-02-19T04:40:54.594Z,71.34
2023-02-19T04:43:21.260Z,72.23
2023-02-19T04:45:48.018Z,73.32
2023-02-19T04:48:14.917Z,73.70
2023-02-19T04:50:41.575Z,71.75
2023-02-19T04:53:08.387Z,71.61
2023-02-19T04:55:38.922Z,73.12
2023-02-19T04:58:05.694Z,73.50
2023-02-19T05:00:34.012Z,73.60
2023-02-19T05:03:01.392Z,73.47
2023-02-19T05:05:28.300Z,73.91
2023-02-19T05:07:55.015Z,73.24
2023-02-19T05:10:21.614Z,74.52
2023-02-19T05:12:48.285Z,74.27
2023-02-19T05:15:14.958Z,72.64
2023-02-19T05:17:41.618Z,73.05
2023-02-19T05:20:08.920Z,73.93
2023-02-19T05:22:35.618Z,74.42
2023-02-19T05:25:02.283Z,73.43
2023-02-19T05:27:30.754Z,73.73
2023-02-19T05:29:57.427Z,72.71
2023-02-19T05:32:24.147Z,72.50
2023-02-19T05:34:51.259Z,73.27
2023-02-19T05:37:17.992Z,74.14
2023-02-19T05:39:44.547Z,74.23
2023-02-19T05:42:13.735Z,74.51
2023-02-19T05:44:40.434Z,74.62
2023-02-19T05:47:07.137Z,74.47
2023-02-19T05:49:33.822Z,73.39
2023-02-19T05:52:00.547Z,73.54
2023-02-19T05:54:30.251Z,73.59
2023-02-19T05:56:57.302Z,73.33
2023-02-19T05:59:26.060Z,72.76
2023-02-19T06:01:54.070Z,73.47
2023-02-19T06:04:21.053Z,73.90
2023-02-19T06:06:48.326Z,73.49
2023-02-19T06:09:14.927Z,73.89
2023-02-19T06:11:43.365Z,72.81
2023-02-19T06:14:12.787Z,73.36
2023-02-19T06:16:39.718Z,74.18
2023-02-19T06:19:06.316Z,74.61
2023-02-19T06:21:33.176Z,74.82
2023-02-19T06:24:04.609Z,76.14
2023-02-19T06:26:31.237Z,74.30
2023-02-19T06:28:57.846Z,74.96
2023-02-19T06:31:24.604Z,75.76
2023-02-19T06:33:51.205Z,75.10
2023-02-19T06:36:20.141Z,76.73
2023-02-19T06:38:47.379Z,76.24
2023-02-19T06:41:14.830Z,76.11
2023-02-19T06:43:42.384Z,77.31
2023-02-19T06:46:11.649Z,79.05
2023-02-19T06:48:40.486Z,79.31
2023-02-19T06:51:07.266Z,78.13
2023-02-19T06:53:33.876Z,76.25
2023-02-19T06:56:03.453Z,76.46
2023-02-19T06:58:31.371Z,76.05
2023-02-19T07:00:58.229Z,76.73
2023-02-19T07:03:26.384Z,77.20
2023-02-19T07:05:53.181Z,77.06
2023-02-19T07:08:19.892Z,77.09
2023-02-19T07:10:53.691Z,77.36
2023-02-19T07:13:20.270Z,78.57
2023-02-19T07:15:46.811Z,78.46
2023-02-19T07:18:13.506Z,77.92
2023-02-19T07:20:40.132Z,77.93
2023-02-19T07:23:06.821Z,78.06
2023-02-19T07:25:33.449Z,78.04
2023-02-19T07:28:00.086Z,78.92
2023-02-19T07:30:26.706Z,78.29
2023-02-19T07:32:53.402Z,78.15
2023-02-19T07:35:19.989Z,78.86
2023-02-19T07:37:46.720Z,79.78
2023-02-19T07:40:13.467Z,79.17
2023-02-19T07:42:40.240Z,79.66
2023-02-19T07:45:07.184Z,79.84
2023-02-19T07:47:33.812Z,80.30
2023-02-19T07:50:00.372Z,80.21
2023-02-19T07:52:27.303Z,81.04
2023-02-19T07:54:53.903Z,81.04
2023-02-19T07:57:20.614Z,81.08
2023-02-19T07:59:47.303Z,81.40
2023-02-19T08:02:39.379Z,81.55
2023-02-19T08:05:06.832Z,81.90
2023-02-19T08:07:35.119Z,82.37
2023-02-19T08:10:22.922Z,82.21
2023-02-19T08:13:15.864Z,82.41
2023-02-19T08:15:42.824Z,82.58
2023-02-19T08:18:10.706Z,83.80
2023-02-19T08:20:37.407Z,83.75
2023-02-19T08:23:04.327Z,83.60
2023-02-19T08:25:31.137Z,83.87
2023-02-19T08:27:57.751Z,83.96
2023-02-19T08:30:24.536Z,84.01
2023-02-19T08:32:51.247Z,85.00
2023-02-19T08:35:18.069Z,84.77
2023-02-19T08:37:45.092Z,84.67
2023-02-19T08:40:12.413Z,85.18
2023-02-19T08:42:39.326Z,85.40
2023-02-19T08:45:06.373Z,85.22
2023-02-19T08:47:35.593Z,85.19
2023-02-19T08:50:02.626Z,85.34
2023-02-19T08:52:29.259Z,85.63
2023-02-19T08:54:56.492Z,85.49
2023-02-19T08:57:23.576Z,85.06
2023-02-19T08:59:50.561Z,84.78
2023-02-19T09:02:17.151Z,85.58
2023-02-19T09:04:43.860Z,86.59
2023-02-19T09:07:12.463Z,86.22
2023-02-19T09:09:40.192Z,85.93
2023-02-19T09:12:12.521Z,85.51
2023-02-19T09:14:39.451Z,84.85
2023-02-19T09:17:08.524Z,84.85
2023-02-19T09:19:36.898Z,84.39
2023-02-19T09:22:04.945Z,84.77
2023-02-19T09:24:32.472Z,84.75
2023-02-19T09:26:59.326Z,84.18
2023-02-19T09:29:27.410Z,84.29
2023-02-19T09:31:58.565Z,85.04
2023-02-19T09:34:26.725Z,84.80
2023-02-19T09:36:54.168Z,85.22
2023-02-19T09:39:21.684Z,84.87
2023-02-19T09:41:55.402Z,84.68
2023-02-19T09:44:30.201Z,84.28
2023-02-19T09:46:58.623Z,83.80
2023-02-19T09:49:49.881Z,83.67
2023-02-19T09:52:28.555Z,83.49
2023-02-19T09:54:59.433Z,83.49
2023-02-19T09:57:29.961Z,83.81
2023-02-19T10:00:05.886Z,83.60
2023-02-19T10:02:33.014Z,83.29
2023-02-19T10:04:59.991Z,82.54
2023-02-19T10:07:36.401Z,85.18
2023-02-19T10:10:21.577Z,84.63
2023-02-19T10:12:52.323Z,84.32
2023-02-19T10:15:32.303Z,83.51
2023-02-19T10:17:59.157Z,83.27
2023-02-19T10:20:28.003Z,83.44
2023-02-19T10:23:03.388Z,83.24
2023-02-19T10:25:31.805Z,83.63
2023-02-19T10:28:00.154Z,84.85
2023-02-19T10:30:33.627Z,83.95
2023-02-19T10:33:09.521Z,83.02
2023-02-19T10:35:51.093Z,83.40
2023-02-19T10:38:20.487Z,82.09
2023-02-19T10:40:47.467Z,84.16
2023-02-19T10:43:31.142Z,84.51
2023-02-19T10:45:59.925Z,82.70
2023-02-19T10:48:37.138Z,81.45
2023-02-19T10:51:11.135Z,80.93
2023-02-19T10:53:40.716Z,82.52
2023-02-19T10:56:08.875Z,81.58
2023-02-19T10:58:37.703Z,81.41
2023-02-19T11:01:21.033Z,81.78
2023-02-19T11:03:52.490Z,82.69
2023-02-19T11:06:26.933Z,81.78
2023-02-19T11:09:01.100Z,80.42
2023-02-19T11:11:40.033Z,80.02
2023-02-19T11:14:18.954Z,79.58
2023-02-19T11:16:52.423Z,81.13
2023-02-19T11:19:24.362Z,80.43
2023-02-19T11:21:51.713Z,80.11
2023-02-19T11:24:40.553Z,77.99
2023-02-19T11:27:18.290Z,79.25
2023-02-19T11:29:45.110Z,80.25
2023-02-19T11:32:21.181Z,78.48
2023-02-19T11:34:48.149Z,77.85
2023-02-19T11:37:20.890Z,76.58
2023-02-19T11:39:50.197Z,76.31
2023-02-19T11:42:35.214Z,77.60
2023-02-19T11:45:07.795Z,77.10
2023-02-19T11:47:52.686Z,76.96
2023-02-19T11:50:29.352Z,75.75
2023-02-19T11:53:24.934Z,75.55
2023-02-19T11:56:15.173Z,75.54
2023-02-19T11:59:02.107Z,75.40
2023-02-19T12:01:37.751Z,75.88
2023-02-19T12:04:17.867Z,76.04
2023-02-19T12:06:56.715Z,75.67
2023-02-19T12:09:26.097Z,75.76
2023-02-19T12:12:06.015Z,75.79
2023-02-19T12:14:47.652Z,75.52
2023-02-19T12:17:45.186Z,74.39
2023-02-19T12:20:42.047Z,74.96
2023-02-19T12:23:31.506Z,74.47
2023-02-19T12:26:31.462Z,73.65
2023-02-19T12:29:03.863Z,74.45
2023-02-19T12:31:40.778Z,72.73
2023-02-19T12:34:24.926Z,73.57
2023-02-19T12:37:17.306Z,72.42
2023-02-19T12:39:52.892Z,70.97
2023-02-19T12:42:51.622Z,71.66
2023-02-19T12:45:33.459Z,71.25
2023-02-19T12:48:25.035Z,71.43
2023-02-19T12:51:21.612Z,70.53
2023-02-19T12:53:51.644Z,71.33
2023-02-19T12:56:44.583Z,70.19
2023-02-19T12:59:49.296Z,67.99
2023-02-19T13:02:24.568Z,68.83
2023-02-19T13:05:36.686Z,68.18
2023-02-19T13:08:22.062Z,68.38
2023-02-19T13:10:56.450Z,67.65
2023-02-19T13:13:34.551Z,68.47
2023-02-19T13:16:09.782Z,67.13
2023-02-19T13:18:41.755Z,67.83
2023-02-19T13:21:09.061Z,69.73
2023-02-19T13:23:56.518Z,67.73
2023-02-19T13:26:44.843Z,66.86
2023-02-19T13:29:43.349Z,66.17
2023-02-19T13:32:34.417Z,65.62
2023-02-19T13:35:25.653Z,66.79
2023-02-19T13:37:54.652Z,66.87
2023-02-19T13:40:30.195Z,65.04
2023-02-19T13:43:07.040Z,65.03
2023-02-19T13:45:43.481Z,65.90
2023-02-19T13:48:33.572Z,63.24
2023-02-19T13:51:19.586Z,62.50
2023-02-19T13:53:46.102Z,64.25
2023-02-19T13:56:34.191Z,62.82
2023-02-19T13:59:33.837Z,63.82
2023-02-19T14:02:03.620Z,63.08
2023-02-19T14:04:52.840Z,63.01
2023-02-19T14:07:21.417Z,62.48
2023-02-19T14:09:48.692Z,63.00
2023-02-19T14:12:16.206Z,61.84
2023-02-19T14:14:47.140Z,62.38
2023-02-19T14:17:28.838Z,61.07
2023-02-19T14:20:17.536Z,61.41
2023-02-19T14:22:47.373Z,61.78
2023-02-19T14:25:52.742Z,60.28
2023-02-19T14:28:19.388Z,60.58
2023-02-19T14:30:50.925Z,60.30
2023-02-19T14:33:21.608Z,59.77
2023-02-19T14:35:52.570Z,60.57
2023-02-19T14:38:44.591Z,58.91
2023-02-19T14:41:13.613Z,58.87
2023-02-19T14:43:41.050Z,58.54
2023-02-19T14:46:18.518Z,59.47
2023-02-19T14:48:49.449Z,59.06
2023-02-19T14:51:44.276Z,59.75
2023-02-19T14:54:16.299Z,59.61
2023-02-19T14:56:47.582Z,59.71
2023-02-19T14:59:22.938Z,59.89
2023-02-19T15:02:04.418Z,59.78
2023-02-19T15:04:36.943Z,59.92
2023-02-19T15:07:08.405Z,59.63
2023-02-19T15:09:44.552Z,60.53
2023-02-19T15:12:21.454Z,58.55
2023-02-19T15:14:50.253Z,59.64
2023-02-19T15:17:26.122Z,60.49
2023-02-19T15:19:54.433Z,60.35
2023-02-19T15:22:24.408Z,60.08
2023-02-19T15:24:51.585Z,60.38
2023-02-19T15:27:24.095Z,60.01
2023-02-19T15:29:53.668Z,59.82
2023-02-19T15:32:26.628Z,59.99
2023-02-19T15:34:59.190Z,61.05
2023-02-19T15:37:28.755Z,62.62
2023-02-19T15:39:57.255Z,63.10
2023-02-19T15:42:26.981Z,62.79
2023-02-19T15:44:59.444Z,63.17
2023-02-19T15:47:41.442Z,62.56
2023-02-19T15:50:14.835Z,61.20
2023-02-19T15:52:44.095Z,59.71
2023-02-19T15:55:19.796Z,59.64
2023-02-19T15:57:55.893Z,58.94
2023-02-19T16:00:54.670Z,59.22
2023-02-19T16:03:24.335Z,59.54
2023-02-19T16:06:02.250Z,60.04
2023-02-19T16:08:31.581Z,61.03
2023-02-19T16:11:00.753Z,61.05
2023-02-19T16:13:29.950Z,62.67
2023-02-19T16:16:29.776Z,63.32
2023-02-19T16:18:57.241Z,63.05
2023-02-19T16:21:27.161Z,63.75
2023-02-19T16:24:06.786Z,64.61
2023-02-19T16:26:41.414Z,65.45
2023-02-19T16:29:23.585Z,65.51
2023-02-19T16:31:54.652Z,65.76
2023-02-19T16:34:39.244Z,66.25
2023-02-19T16:37:36.579Z,66.78
2023-02-19T16:40:09.512Z,67.09
2023-02-19T16:42:38.173Z,67.26
2023-02-19T16:45:08.487Z,67.18
2023-02-19T16:47:40.544Z,67.99
2023-02-19T16:50:13.173Z,68.87
2023-02-19T16:52:54.782Z,68.45
2023-02-19T16:55:22.197Z,67.74
2023-02-19T16:57:49.381Z,68.47
2023-02-19T17:00:24.746Z,68.77
2023-02-19T17:02:54.452Z,68.00
2023-02-19T17:05:23.450Z,68.32
2023-02-19T17:07:50.408Z,68.75
2023-02-19T17:10:25.158Z,68.81
2023-02-19T17:12:53.356Z,68.93
2023-02-19T17:15:20.400Z,68.42
2023-02-19T17:17:47.141Z,69.50
2023-02-19T17:20:22.083Z,69.94
2023-02-19T17:22:48.683Z,70.72
2023-02-19T17:25:15.254Z,70.93
2023-02-19T17:27:42.010Z,71.10
2023-02-19T17:30:23.692Z,70.90
2023-02-19T17:32:50.464Z,69.87
2023-02-19T17:35:17.107Z,70.55
2023-02-19T17:37:43.843Z,70.06
2023-02-19T17:40:32.300Z,69.41
2023-02-19T17:42:59.653Z,69.73
2023-02-19T17:45:26.223Z,70.36
2023-02-19T17:47:53.124Z,70.76
2023-02-19T17:50:26.609Z,71.13
2023-02-19T17:52:53.344Z,71.66
2023-02-19T17:55:20.045Z,71.72
2023-02-19T17:57:50.705Z,72.01
2023-02-19T18:00:20.719Z,71.14
2023-02-19T18:02:47.569Z,71.31
2023-02-19T18:05:14.367Z,71.37
2023-02-19T18:07:41.620Z,70.87
2023-02-19T18:10:08.935Z,71.10
2023-02-19T18:12:36.050Z,70.69
2023-02-19T18:15:02.778Z,70.95
2023-02-19T18:17:29.481Z,71.48
2023-02-19T18:19:56.437Z,71.40
2023-02-19T18:22:23.113Z,70.92
2023-02-19T18:24:51.638Z,71.77
2023-02-19T18:27:20.370Z,71.46
2023-02-19T18:29:54.845Z,71.72
2023-02-19T18:32:23.553Z,69.89
2023-02-19T18:34:51.874Z,70.55
2023-02-19T18:37:19.562Z,70.93
2023-02-19T18:39:46.601Z,70.36
2023-02-19T18:42:13.870Z,70.23
2023-02-19T18:44:40.751Z,71.15
2023-02-19T18:47:08.316Z,71.54
2023-02-19T18:49:35.151Z,71.47
2023-02-19T18:52:01.854Z,71.38
2023-02-19T18:54:29.872Z,72.27
2023-02-19T18:56:57.263Z,71.92
2023-02-19T18:59:24.057Z,71.10
2023-02-19T19:01:51.460Z,70.83
2023-02-19T19:04:18.689Z,70.39
2023-02-19T19:06:45.386Z,70.61
2023-02-19T19:09:12.108Z,70.40
2023-02-19T19:11:38.845Z,69.70
2023-02-19T19:14:05.532Z,70.05
2023-02-19T19:16:32.358Z,70.85
2023-02-19T19:18:59.174Z,70.89
2023-02-19T19:21:25.913Z,70.60
2023-02-19T19:23:52.625Z,71.16
2023-02-19T19:26:19.683Z,71.06
2023-02-19T19:28:46.562Z,68.98
2023-02-19T19:31:15.599Z,70.63
2023-02-19T19:33:43.250Z,69.02
2023-02-19T19:36:11.262Z,70.33
2023-02-19T19:38:38.339Z,72.13
2023-02-19T19:41:05.861Z,70.71
2023-02-19T19:43:33.234Z,71.56
2023-02-19T19:46:00.514Z,71.71
2023-02-19T19:48:29.867Z,72.04
2023-02-19T19:50:57.060Z,71.05
2023-02-19T19:53:24.690Z,70.59
2023-02-19T19:55:51.646Z,71.60
2023-02-19T19:58:22.688Z,71.92
2023-02-19T20:00:49.430Z,71.34
2023-02-19T20:03:16.046Z,71.41
2023-02-19T20:05:42.789Z,70.91
2023-02-19T20:08:09.476Z,71.15
2023-02-19T20:10:36.159Z,72.09
2023-02-19T20:13:04.320Z,70.27
2023-02-19T20:15:31.158Z,71.25
2023-02-19T20:17:58.033Z,71.28
2023-02-19T20:20:24.790Z,71.11
2023-02-19T20:22:52.687Z,70.61
2023-02-19T20:25:21.800Z,71.36
2023-02-19T20:27:50.003Z,71.28
2023-02-19T20:30:18.582Z,70.74
2023-02-19T20:32:45.259Z,71.33
2023-02-19T20:35:12.301Z,71.18
2023-02-19T20:37:40.249Z,69.48
2023-02-19T20:40:08.240Z,69.76
2023-02-19T20:42:34.966Z,70.55
2023-02-19T20:45:01.733Z,70.24
2023-02-19T20:47:28.325Z,70.30
2023-02-19T20:49:55.011Z,69.75
2023-02-19T20:52:21.882Z,70.58
2023-02-19T20:54:48.565Z,71.15
2023-02-19T20:57:15.174Z,69.72
2023-02-19T20:59:44.133Z,69.56
2023-02-19T21:02:29.413Z,70.80
2023-02-19T21:04:57.027Z,71.01
2023-02-19T21:07:27.126Z,70.66
2023-02-19T21:09:54.505Z,71.36
2023-02-19T21:12:22.558Z,70.23
2023-02-19T21:14:49.402Z,69.72
2023-02-19T21:17:16.166Z,70.45
2023-02-19T21:19:43.022Z,70.18
2023-02-19T21:22:09.573Z,70.38
2023-02-19T21:24:36.320Z,71.02
2023-02-19T21:27:02.889Z,71.37
2023-02-19T21:29:29.540Z,71.42
2023-02-19T21:31:57.135Z,71.22
2023-02-19T21:34:26.455Z,71.35
2023-02-19T21:36:53.895Z,71.68
2023-02-19T21:39:23.309Z,70.23
2023-02-19T21:41:50.324Z,71.44
2023-02-19T21:44:17.481Z,70.50
2023-02-19T21:46:44.357Z,71.04
2023-02-19T21:49:11.580Z,70.45
2023-02-19T21:51:41.101Z,70.25
2023-02-19T21:54:13.715Z,70.13
2023-02-19T21:56:40.380Z,71.60
2023-02-19T21:59:07.049Z,71.74
2023-02-19T22:01:39.871Z,71.69
2023-02-19T22:04:07.578Z,70.84
2023-02-19T22:06:34.792Z,71.64
2023-02-19T22:09:01.964Z,72.32
2023-02-19T22:11:28.891Z,72.26
2023-02-19T22:13:55.548Z,71.78
2023-02-19T22:16:22.464Z,71.38
2023-02-19T22:18:51.276Z,73.55
2023-02-19T22:21:19.002Z,73.89
2023-02-19T22:23:47.260Z,73.98
2023-02-19T22:26:27.660Z,74.79
2023-02-19T22:28:55.025Z,74.64
2023-02-19T22:31:23.508Z,75.16
2023-02-19T22:33:50.257Z,74.44
2023-02-19T22:36:19.550Z,74.06
2023-02-19T22:38:46.883Z,74.14
2023-02-19T22:41:15.176Z,73.44
2023-02-19T22:43:42.124Z,75.52
2023-02-19T22:46:20.307Z,75.45
2023-02-19T22:48:47.099Z,74.86
2023-02-19T22:51:16.469Z,74.45
2023-02-19T22:53:47.640Z,72.32
2023-02-19T22:56:15.903Z,73.27
2023-02-19T22:58:43.290Z,72.23
2023-02-19T23:01:11.450Z,72.91
2023-02-19T23:03:58.315Z,72.67
2023-02-19T23:06:27.829Z,73.35
2023-02-19T23:08:56.668Z,72.66
2023-02-19T23:11:26.430Z,72.38
2023-02-19T23:13:53.505Z,71.91
2023-02-19T23:16:20.624Z,72.34
2023-02-19T23:18:47.906Z,72.64
2023-02-19T23:21:15.714Z,72.12
2023-02-19T23:23:43.466Z,71.34
2023-02-19T23:26:10.753Z,70.66
2023-02-19T23:28:40.217Z,70.99
2023-02-19T23:31:07.346Z,71.56
2023-02-19T23:33:34.301Z,72.01
2023-02-19T23:36:01.032Z,71.94
2023-02-19T23:38:27.860Z,70.24
2023-02-19T23:40:54.520Z,71.10
2023-02-19T23:43:21.520Z,71.59
2023-02-19T23:45:48.271Z,72.13
2023-02-19T23:48:14.984Z,72.75
2023-02-19T23:50:41.826Z,71.31
2023-02-19T23:53:08.474Z,70.53
2023-02-19T23:55:35.114Z,71.56
2023-02-19T23:58:01.771Z,71.99
